Time;durP1;ratioP1;P1;durP2;ratioP2;P2;SDS_P1;SDS_P2;PMS_P1;PMS_P2;Temp;Humidity;BMP_temperature;BMP_pressure;BME280_temperature;BME280_humidity;BME280_pressure;Samples;Min_cycle;Max_cycle;Signal;HPM_P1;HPM_P2
2021/12/14 00:01:38;;;;;;;;;2.00;2.00;;;;;-146.25;100.00;57879.81;5077090;28;45527;-70
2021/12/14 00:04:07;;;;;;;;;2.00;2.00;;;;;-146.25;100.00;57879.81;5075201;28;45535;-70
2021/12/14 00:06:33;;;;;;;;;2.25;1.75;;;;;-146.25;100.00;57879.81;5076533;27;46243;-70
2021/12/14 00:09:01;;;;;;;;;2.00;2.00;;;;;-146.25;100.00;57879.81;5074100;28;45477;-70
2021/12/14 00:16:48;;;;;;;;;1.00;1.00;;;;;-146.25;100.00;57879.81;5074599;28;45951;-70
2021/12/14 00:19:16;;;;;;;;;1.25;1.25;;;;;-146.25;100.00;57879.81;5076490;27;45459;-70
2021/12/14 00:21:48;;;;;;;;;2.00;1.00;;;;;-146.25;100.00;57879.81;5076690;27;45500;-70
2021/12/14 00:24:15;;;;;;;;;0.00;0.00;;;;;-146.25;100.00;57879.81;5076871;27;45500;-70
2021/12/14 00:26:51;;;;;;;;;2.00;1.00;;;;;-146.25;100.00;57879.81;5076883;27;45970;-70
2021/12/14 00:29:20;;;;;;;;;12.75;11.00;;;;;-146.25;100.00;57879.81;5076640;27;45527;-70
2021/12/14 00:31:48;;;;;;;;;89.25;65.25;;;;;-146.25;100.00;57879.81;5076440;27;45602;-71
2021/12/14 00:34:22;;;;;;;;;18.75;17.00;;;;;-146.25;100.00;57879.81;5076592;27;45450;-70
2021/12/14 00:36:49;;;;;;;;;38.75;29.25;;;;;-146.25;100.00;57879.81;5076447;27;45424;-70
2021/12/14 00:39:15;;;;;;;;;30.75;25.75;;;;;-146.25;100.00;57879.81;5076133;27;45331;-70
2021/12/14 00:41:41;;;;;;;;;27.50;23.25;;;;;-146.25;100.00;57879.81;5076358;28;45333;-70
2021/12/14 00:44:08;;;;;;;;;31.50;27.75;;;;;-146.25;100.00;57879.81;5076335;27;45510;-70
2021/12/14 00:46:36;;;;;;;;;22.75;17.25;;;;;-146.25;100.00;57879.81;5076055;28;46227;-70
2021/12/14 00:49:07;;;;;;;;;17.25;15.00;;;;;-146.25;100.00;57879.81;5076107;27;45473;-70
2021/12/14 00:51:33;;;;;;;;;22.25;16.50;;;;;-146.25;100.00;57879.81;5076038;27;45409;-70
2021/12/14 00:54:06;;;;;;;;;40.00;32.50;;;;;-146.25;100.00;57879.81;5076386;27;45598;-70
2021/12/14 00:56:33;;;;;;;;;37.50;26.75;;;;;-146.25;100.00;57879.81;5075992;27;46079;-70
2021/12/14 00:59:05;;;;;;;;;8.75;7.50;;;;;-146.25;100.00;57879.81;5073230;28;45379;-70
2021/12/14 01:01:39;;;;;;;;;4.75;4.25;;;;;-146.25;100.00;57879.81;5074752;28;45485;-70
2021/12/14 01:04:25;;;;;;;;;21.00;18.50;;;;;-146.25;100.00;57879.81;5073832;28;45480;-70
2021/12/14 01:06:52;;;;;;;;;73.50;56.00;;;;;-146.25;100.00;57879.81;5074872;28;45445;-70
2021/12/14 01:09:24;;;;;;;;;74.25;57.75;;;;;-146.25;100.00;57879.81;5076080;27;45179;-70
2021/12/14 01:11:52;;;;;;;;;46.50;37.75;;;;;-146.25;100.00;57879.81;5076288;27;45609;-70
2021/12/14 01:14:30;;;;;;;;;48.00;34.00;;;;;-146.25;100.00;57879.81;5076205;27;45434;-70
2021/12/14 01:17:12;;;;;;;;;38.00;32.00;;;;;-146.25;100.00;57879.81;5075520;27;45506;-70
2021/12/14 01:19:41;;;;;;;;;40.50;37.25;;;;;-146.25;100.00;57879.81;5075409;28;45458;-70
2021/12/14 01:22:32;;;;;;;;;39.75;33.50;;;;;-146.25;100.00;57879.81;5075727;27;45503;-70
2021/12/14 01:25:09;;;;;;;;;12.25;9.25;;;;;-146.25;100.00;57879.81;5075720;28;45894;-70
2021/12/14 01:27:37;;;;;;;;;6.25;4.50;;;;;-146.25;100.00;57879.81;5076273;28;46041;-70
2021/12/14 01:30:15;;;;;;;;;4.50;2.00;;;;;-146.25;100.00;57879.81;5077214;28;45444;-70
2021/12/14 01:32:45;;;;;;;;;1.25;1.00;;;;;-146.25;100.00;57879.81;5077364;27;45421;-70
2021/12/14 01:35:14;;;;;;;;;2.00;2.00;;;;;-146.25;100.00;57879.81;5077166;27;45548;-70
2021/12/14 01:37:58;;;;;;;;;1.50;1.50;;;;;-146.25;100.00;57879.81;5077052;28;46219;-70
2021/12/14 01:40:46;;;;;;;;;1.00;1.00;;;;;-146.25;100.00;57879.81;5077263;28;45390;-70
2021/12/14 01:43:10;;;;;;;;;2.75;1.75;;;;;-146.25;100.00;57879.81;5077090;27;45486;-70
2021/12/14 01:45:36;;;;;;;;;19.50;17.00;;;;;-146.25;100.00;57879.81;5078520;27;45465;-71
2021/12/14 01:48:04;;;;;;;;;3.50;2.50;;;;;-146.25;100.00;57879.81;5079221;28;46161;-71
2021/12/14 01:50:35;;;;;;;;;1.25;1.00;;;;;-146.25;100.00;57879.81;5076952;27;45464;-70
2021/12/14 01:53:02;;;;;;;;;1.00;1.00;;;;;-146.25;100.00;57879.81;5077053;27;45325;-70
2021/12/14 01:55:33;;;;;;;;;3.25;2.00;;;;;-146.25;100.00;57879.81;5077273;27;45381;-71
2021/12/14 01:58:01;;;;;;;;;3.00;2.00;;;;;-146.25;100.00;57879.81;5076880;27;45530;-70
2021/12/14 02:00:34;;;;;;;;;1.00;1.00;;;;;-146.25;100.00;57879.81;5076895;27;45597;-71
2021/12/14 02:03:04;;;;;;;;;2.00;1.75;;;;;-146.25;100.00;57879.81;5076957;27;45522;-71
2021/12/14 02:05:36;;;;;;;;;6.25;6.25;;;;;-146.25;100.00;57879.81;5076897;27;45385;-71
2021/12/14 02:08:13;;;;;;;;;1.25;1.00;;;;;-146.25;100.00;57879.81;5076686;27;46158;-70
2021/12/14 02:10:39;;;;;;;;;1.75;1.50;;;;;-146.25;100.00;57879.81;5076420;27;45521;-71
2021/12/14 02:13:06;;;;;;;;;2.00;1.00;;;;;-146.25;100.00;57879.81;5076670;27;45353;-71
2021/12/14 02:15:41;;;;;;;;;1.00;0.75;;;;;-146.25;100.00;57879.81;5076725;27;45492;-71
2021/12/14 02:18:14;;;;;;;;;2.00;2.00;;;;;-146.25;100.00;57879.81;5079508;27;45385;-71
2021/12/14 02:21:10;;;;;;;;;3.00;3.00;;;;;-146.25;100.00;57879.81;5080144;27;45233;-71
2021/12/14 02:23:40;;;;;;;;;2.00;2.00;;;;;-146.25;100.00;57879.81;5075571;27;45382;-71
2021/12/14 02:26:11;;;;;;;;;4.25;3.75;;;;;-146.25;100.00;57879.81;5080282;27;45290;-70
2021/12/14 02:28:38;;;;;;;;;7.25;6.25;;;;;-146.25;100.00;57879.81;5079855;27;46274;-70
2021/12/14 02:31:07;;;;;;;;;2.50;2.00;;;;;-146.25;100.00;57879.81;5079877;27;45457;-70
2021/12/14 02:33:36;;;;;;;;;1.00;1.00;;;;;-146.25;100.00;57879.81;5080008;27;45464;-71
2021/12/14 02:36:05;;;;;;;;;1.50;1.00;;;;;-146.25;100.00;57879.81;5095920;27;45546;-70
2021/12/14 02:38:31;;;;;;;;;2.00;1.00;;;;;-146.25;100.00;57879.81;5079821;27;45507;-70
2021/12/14 02:41:02;;;;;;;;;1.25;1.25;;;;;-146.25;100.00;57879.81;5079835;28;45330;-71
2021/12/14 02:43:33;;;;;;;;;1.25;1.25;;;;;-146.25;100.00;57879.81;5080085;27;45385;-70
2021/12/14 02:46:19;;;;;;;;;2.00;1.00;;;;;-146.25;100.00;57879.81;5080073;27;45486;-70
2021/12/14 02:48:49;;;;;;;;;4.00;3.75;;;;;-146.25;100.00;57879.81;5079686;27;45401;-70
2021/12/14 02:51:22;;;;;;;;;4.00;2.00;;;;;-146.25;100.00;57879.81;5079582;27;45270;-71
2021/12/14 02:53:51;;;;;;;;;3.00;2.00;;;;;-146.25;100.00;57879.81;5079851;27;45310;-71
2021/12/14 02:56:20;;;;;;;;;7.00;6.00;;;;;-146.25;100.00;57879.81;5080015;27;45806;-71
2021/12/14 02:58:48;;;;;;;;;20.00;17.00;;;;;-146.25;100.00;57879.81;5079395;27;45455;-71
2021/12/14 03:01:16;;;;;;;;;6.25;6.00;;;;;-146.25;100.00;57879.81;5079513;27;45430;-71
2021/12/14 03:03:42;;;;;;;;;3.00;2.00;;;;;-146.25;100.00;57879.81;5079568;27;45218;-70
2021/12/14 03:06:10;;;;;;;;;3.00;1.75;;;;;-146.25;100.00;57879.81;5079820;28;45448;-70
2021/12/14 03:08:44;;;;;;;;;1.00;1.00;;;;;-146.25;100.00;57879.81;5079248;27;45446;-70
2021/12/14 03:11:12;;;;;;;;;0.75;0.75;;;;;-146.25;100.00;57879.81;5079304;27;45575;-70
2021/12/14 03:13:51;;;;;;;;;1.50;0.25;;;;;-146.25;100.00;57879.81;5079113;27;45775;-70
2021/12/14 03:16:31;;;;;;;;;1.25;1.00;;;;;-146.25;100.00;57879.81;5079513;27;45163;-70
2021/12/14 03:18:59;;;;;;;;;0.00;0.00;;;;;-146.25;100.00;57879.81;5079461;28;45578;-70
2021/12/14 03:21:32;;;;;;;;;0.50;0.50;;;;;-146.25;100.00;57879.81;5079563;28;45510;-71
2021/12/14 03:24:04;;;;;;;;;1.00;1.00;;;;;-146.25;100.00;57879.81;5079653;27;45515;-71
2021/12/14 03:26:34;;;;;;;;;1.75;1.00;;;;;-146.25;100.00;57879.81;5079522;27;45369;-71
2021/12/14 03:29:07;;;;;;;;;0.25;0.25;;;;;-146.25;100.00;57879.81;5078479;27;46140;-71
2021/12/14 03:31:39;;;;;;;;;2.00;1.00;;;;;-146.25;100.00;57879.81;5078732;27;45442;-71
2021/12/14 03:34:11;;;;;;;;;2.00;1.00;;;;;-146.25;100.00;57879.81;5079259;27;45494;-71
2021/12/14 03:36:48;;;;;;;;;2.00;1.50;;;;;-146.25;100.00;57879.81;5079224;27;45316;-71
2021/12/14 03:39:19;;;;;;;;;1.00;1.00;;;;;-146.25;100.00;57879.81;5078901;27;46010;-71
2021/12/14 03:41:54;;;;;;;;;0.50;0.50;;;;;-146.25;100.00;57879.81;5079047;28;45527;-71
2021/12/14 03:44:26;;;;;;;;;0.75;0.75;;;;;-146.25;100.00;57879.81;5079144;27;45385;-71
2021/12/14 03:46:57;;;;;;;;;1.25;1.00;;;;;-146.25;100.00;57879.81;5079018;27;45409;-71
2021/12/14 03:49:29;;;;;;;;;0.50;0.50;;;;;-146.25;100.00;57879.81;5078737;27;46279;-71
2021/12/14 03:51:55;;;;;;;;;1.00;1.00;;;;;-146.25;100.00;57879.81;5078766;27;46169;-71
2021/12/14 03:54:21;;;;;;;;;1.00;1.00;;;;;-146.25;100.00;57879.81;5078920;27;45289;-71
2021/12/14 03:56:49;;;;;;;;;1.00;0.00;;;;;-146.25;100.00;57879.81;5079077;27;45540;-71
2021/12/14 03:59:15;;;;;;;;;3.50;1.00;;;;;-146.25;100.00;57879.81;5078726;27;46063;-71
2021/12/14 04:01:43;;;;;;;;;0.00;0.00;;;;;-146.25;100.00;57879.81;5078777;28;45519;-71
2021/12/14 04:04:28;;;;;;;;;1.75;1.75;;;;;-146.25;100.00;57879.81;5078720;27;45361;-71
2021/12/14 04:06:58;;;;;;;;;2.50;2.00;;;;;-146.25;100.00;57879.81;5078902;27;45334;-71
2021/12/14 04:09:29;;;;;;;;;2.00;1.50;;;;;-146.25;100.00;57879.81;5078345;27;45502;-71
2021/12/14 04:11:55;;;;;;;;;3.50;2.50;;;;;-146.25;100.00;57879.81;5078349;28;45205;-71
2021/12/14 04:14:22;;;;;;;;;1.50;1.50;;;;;-146.25;100.00;57879.81;5078418;27;45499;-71
2021/12/14 04:16:51;;;;;;;;;2.00;2.00;;;;;-146.25;100.00;57879.81;5078466;27;45479;-71
2021/12/14 04:19:22;;;;;;;;;2.00;1.25;;;;;-146.25;100.00;57879.81;5078497;27;46199;-71
2021/12/14 04:21:49;;;;;;;;;1.25;1.00;;;;;-146.25;100.00;57879.81;5078420;27;45223;-71
2021/12/14 04:24:20;;;;;;;;;1.25;1.25;;;;;-146.25;100.00;57879.81;5078254;27;45420;-72
2021/12/14 04:26:46;;;;;;;;;1.00;1.00;;;;;-146.25;100.00;57879.81;5078106;27;45549;-71
2021/12/14 04:29:14;;;;;;;;;2.00;1.50;;;;;-146.25;100.00;57879.81;5077905;27;46138;-72
2021/12/14 04:31:43;;;;;;;;;1.00;1.00;;;;;-146.25;100.00;57879.81;5077795;27;45449;-71
2021/12/14 04:34:09;;;;;;;;;1.00;1.00;;;;;-146.25;100.00;57879.81;5078269;27;45401;-71
2021/12/14 04:36:35;;;;;;;;;1.00;1.00;;;;;-146.25;100.00;57879.81;5078492;27;45462;-71
2021/12/14 04:53:24;;;;;;;;;0.00;0.00;;;;;-146.25;100.00;57879.81;5074652;28;45670;-71
2021/12/14 04:55:55;;;;;;;;;0.00;0.00;;;;;-146.25;100.00;57879.81;5073132;28;45800;-71
2021/12/14 04:58:35;;;;;;;;;0.00;0.00;;;;;-146.25;100.00;57879.81;5075968;27;45401;-71
2021/12/14 05:01:06;;;;;;;;;1.00;0.00;;;;;-146.25;100.00;57879.81;5073290;28;46341;-72
2021/12/14 05:03:36;;;;;;;;;3.00;3.00;;;;;-146.25;100.00;57879.81;5076521;28;44872;-72
2021/12/14 05:06:15;;;;;;;;;2.00;2.00;;;;;-146.25;100.00;57879.81;5077992;27;45557;-71
2021/12/14 05:11:22;;;;;;;;;18.00;16.00;;;;;-146.25;100.00;57879.81;5074260;28;45998;-70
2021/12/14 05:13:57;;;;;;;;;3.50;1.00;;;;;-146.25;100.00;57879.81;5091399;27;45222;-70
2021/12/14 05:16:27;;;;;;;;;4.00;1.50;;;;;-146.25;100.00;57879.81;5075875;27;45594;-71
2021/12/14 05:18:57;;;;;;;;;35.75;27.50;;;;;-146.25;100.00;57879.81;5073449;28;45354;-72
2021/12/14 05:21:32;;;;;;;;;55.25;41.25;;;;;-146.25;100.00;57879.81;5074142;28;47795;-73
2021/12/14 05:24:00;;;;;;;;;5.00;4.00;;;;;-146.25;100.00;57879.81;5073914;28;45597;-70
2021/12/14 05:26:26;;;;;;;;;15.50;10.00;;;;;-146.25;100.00;57879.81;5075473;27;45496;-75
2021/12/14 05:28:52;;;;;;;;;15.50;13.00;;;;;-146.25;100.00;57879.81;5075797;28;45607;-71
2021/12/14 05:31:18;;;;;;;;;44.00;37.50;;;;;-146.25;100.00;57879.81;5075334;27;46042;-71
2021/12/14 05:33:46;;;;;;;;;44.75;38.75;;;;;-146.25;100.00;57879.81;5076195;27;45429;-72
2021/12/14 05:36:15;;;;;;;;;21.75;15.50;;;;;-146.25;100.00;57879.81;5071846;28;45507;-71
2021/12/14 05:44:17;;;;;;;;;6.00;5.00;;;;;-146.25;100.00;57879.81;5075025;28;45606;-71
2021/12/14 05:46:50;;;;;;;;;24.50;23.25;;;;;-146.25;100.00;57879.81;5075267;27;45503;-71
2021/12/14 05:49:22;;;;;;;;;5.75;5.00;;;;;-146.25;100.00;57879.81;5073325;28;45376;-76
2021/12/14 05:51:50;;;;;;;;;11.25;10.00;;;;;-146.25;100.00;57879.81;5078044;27;45502;-71
2021/12/14 05:54:28;;;;;;;;;11.25;10.00;;;;;-146.25;100.00;57879.81;5078619;27;45448;-71
2021/12/14 05:56:55;;;;;;;;;2.50;2.25;;;;;-146.25;100.00;57879.81;5076680;28;45495;-71
2021/12/14 05:59:25;;;;;;;;;8.25;6.75;;;;;-146.25;100.00;57879.81;5082021;27;45558;-71
2021/12/14 06:01:51;;;;;;;;;7.00;6.25;;;;;-146.25;100.00;57879.81;5090688;27;45542;-71
2021/12/14 06:04:17;;;;;;;;;12.25;10.00;;;;;-146.25;100.00;57879.81;5103978;27;45511;-73
2021/12/14 06:06:49;;;;;;;;;11.75;10.50;;;;;-146.25;100.00;57879.81;5089962;27;45535;-72
2021/12/14 06:09:24;;;;;;;;;13.25;10.50;;;;;-146.25;100.00;57879.81;5089383;27;45510;-71
2021/12/14 06:11:58;;;;;;;;;13.50;12.00;;;;;-146.25;100.00;57879.81;5085809;27;45533;-71
2021/12/14 06:14:26;;;;;;;;;14.00;11.75;;;;;-146.25;100.00;57879.81;5087541;27;45259;-72
2021/12/14 06:17:03;;;;;;;;;9.00;7.75;;;;;-146.25;100.00;57879.81;5088675;27;45413;-71
2021/12/14 06:19:32;;;;;;;;;14.00;11.00;;;;;-146.25;100.00;57879.81;5086307;27;45636;-71
2021/12/14 06:22:09;;;;;;;;;12.25;10.25;;;;;-146.25;100.00;57879.81;5087751;27;45389;-73
2021/12/14 06:24:48;;;;;;;;;5.75;5.50;;;;;-146.25;100.00;57879.81;5087400;27;45562;-73
2021/12/14 06:27:17;;;;;;;;;3.00;2.00;;;;;-146.25;100.00;57879.81;5086943;27;45477;-74
2021/12/14 06:29:46;;;;;;;;;2.50;2.00;;;;;-146.25;100.00;57879.81;5087682;27;45587;-71
2021/12/14 06:32:23;;;;;;;;;2.00;2.00;;;;;-146.25;100.00;57879.81;5088281;27;46284;-71
2021/12/14 06:34:55;;;;;;;;;5.00;5.00;;;;;-146.25;100.00;57879.81;5085169;27;45425;-71
2021/12/14 06:40:09;;;;;;;;;11.00;10.25;;;;;-146.25;100.00;57879.81;5086324;27;45349;-70
2021/12/14 06:42:40;;;;;;;;;9.00;8.00;;;;;-146.25;100.00;57879.81;5086518;27;45572;-71
2021/12/14 06:45:19;;;;;;;;;9.00;7.00;;;;;-146.25;100.00;57879.81;5086726;27;45547;-70
2021/12/14 06:47:48;;;;;;;;;6.75;6.00;;;;;-146.25;100.00;57879.81;5087007;27;45526;-70
2021/12/14 06:50:24;;;;;;;;;14.50;13.50;;;;;-146.25;100.00;57879.81;5088234;27;45320;-70
2021/12/14 06:53:06;;;;;;;;;6.75;6.75;;;;;-146.25;100.00;57879.81;5084727;27;46417;-71
2021/12/14 06:55:33;;;;;;;;;6.00;5.00;;;;;-146.25;100.00;57879.81;5086101;27;45507;-70
2021/12/14 06:58:45;;;;;;;;;9.00;7.00;;;;;-146.25;100.00;57879.81;5087459;27;45459;-70
2021/12/14 07:01:24;;;;;;;;;16.50;13.25;;;;;-146.25;100.00;57879.81;5058627;28;45717;-71
2021/12/14 07:03:56;;;;;;;;;10.75;9.75;;;;;-146.25;100.00;57879.81;5055209;28;45438;-70
2021/12/14 07:06:27;;;;;;;;;6.00;5.00;;;;;-146.25;100.00;57879.81;5069860;27;45519;-70
2021/12/14 07:08:56;;;;;;;;;2.00;2.00;;;;;-146.25;100.00;57879.81;5078944;27;45491;-71
2021/12/14 07:11:26;;;;;;;;;2.00;1.00;;;;;-146.25;100.00;57879.81;5079285;27;45523;-70
2021/12/14 07:13:54;;;;;;;;;5.00;3.00;;;;;-146.25;100.00;57879.81;5079308;28;46046;-71
2021/12/14 07:16:45;;;;;;;;;8.00;6.50;;;;;-146.25;100.00;57879.81;5079045;27;45551;-78
2021/12/14 07:19:11;;;;;;;;;32.00;29.50;;;;;-146.25;100.00;57879.81;5071617;28;45446;-75
2021/12/14 07:21:44;;;;;;;;;29.00;26.00;;;;;-146.25;100.00;57879.81;5073336;28;45560;-73
2021/12/14 07:24:22;;;;;;;;;45.25;38.25;;;;;-146.25;100.00;57879.81;5074881;28;45406;-73
2021/12/14 07:26:50;;;;;;;;;56.00;44.75;;;;;-146.25;100.00;57879.81;5077832;28;45644;-74
2021/12/14 07:29:24;;;;;;;;;34.50;27.75;;;;;-146.25;100.00;57879.81;5078042;27;45460;-73
2021/12/14 07:31:50;;;;;;;;;28.50;24.50;;;;;-146.25;100.00;57879.81;5078145;28;45394;-73
2021/12/14 07:34:20;;;;;;;;;15.00;11.00;;;;;-146.25;100.00;57879.81;5077392;27;46219;-73
2021/12/14 07:36:46;;;;;;;;;6.00;6.00;;;;;-146.25;100.00;57879.81;5077943;27;45446;-73
2021/12/14 07:39:14;;;;;;;;;3.00;3.00;;;;;-146.25;100.00;57879.81;5078053;27;45394;-75
2021/12/14 07:41:47;;;;;;;;;1.00;1.00;;;;;-146.25;100.00;57879.81;5078325;28;45469;-72
2021/12/14 07:44:22;;;;;;;;;1.50;0.75;;;;;-146.25;100.00;57879.81;5077787;27;45510;-73
2021/12/14 07:47:03;;;;;;;;;1.00;0.50;;;;;-146.25;100.00;57879.81;5077899;27;45420;-72
2021/12/14 07:49:41;;;;;;;;;2.75;2.00;;;;;-146.25;100.00;57879.81;5078218;27;45511;-73
2021/12/14 07:52:09;;;;;;;;;3.50;3.00;;;;;-146.25;100.00;57879.81;5077844;27;45350;-72
2021/12/14 07:54:42;;;;;;;;;3.00;3.00;;;;;-146.25;100.00;57879.81;5077570;28;45420;-74
2021/12/14 07:57:20;;;;;;;;;6.75;4.50;;;;;-146.25;100.00;57879.81;5077777;28;45414;-72
2021/12/14 07:59:52;;;;;;;;;12.25;9.00;;;;;-146.25;100.00;57879.81;5077692;27;45452;-73
2021/12/14 08:02:23;;;;;;;;;64.75;51.25;;;;;-146.25;100.00;57879.81;5077788;27;45487;-73
2021/12/14 08:04:58;;;;;;;;;75.75;59.25;;;;;-146.25;100.00;57879.81;5077233;27;45433;-72
2021/12/14 08:07:29;;;;;;;;;59.75;50.00;;;;;-146.25;100.00;57879.81;5076884;27;45492;-74
2021/12/14 08:10:15;;;;;;;;;50.50;44.50;;;;;-146.25;100.00;57879.81;5077448;27;45374;-73
2021/12/14 08:12:46;;;;;;;;;20.50;20.50;;;;;-146.25;100.00;57879.81;5076247;27;45583;-72
2021/12/14 08:15:35;;;;;;;;;62.25;51.25;;;;;-146.25;100.00;57879.81;5075167;28;46126;-72
2021/12/14 08:18:07;;;;;;;;;10.00;9.00;;;;;-146.25;100.00;57879.81;5074349;28;45488;-74
2021/12/14 08:20:36;;;;;;;;;25.00;20.25;;;;;-146.25;100.00;57879.81;5077278;27;45574;-74
2021/12/14 08:23:16;;;;;;;;;76.25;58.25;;;;;-146.25;100.00;57879.81;5073960;28;45432;-72
2021/12/14 08:25:42;;;;;;;;;37.00;30.00;;;;;-146.25;100.00;57879.81;5073125;27;45917;-79
2021/12/14 08:28:09;;;;;;;;;27.00;23.75;;;;;-146.25;100.00;57879.81;5076221;27;45463;-73
2021/12/14 08:30:38;;;;;;;;;23.25;19.00;;;;;-146.25;100.00;57879.81;5077839;27;45508;-74
2021/12/14 08:33:16;;;;;;;;;42.50;38.25;;;;;-146.25;100.00;57879.81;5077674;27;45381;-71
2021/12/14 08:35:42;;;;;;;;;72.00;55.25;;;;;-146.25;100.00;57879.81;5074717;28;45691;-72
2021/12/14 08:38:08;;;;;;;;;61.00;46.25;;;;;-146.25;100.00;57879.81;5076608;27;45435;-73
2021/12/14 08:40:43;;;;;;;;;64.25;53.75;;;;;-146.25;100.00;57879.81;5077504;27;45574;-72
2021/12/14 08:43:19;;;;;;;;;27.75;23.25;;;;;-146.25;100.00;57879.81;5077521;27;45499;-71
2021/12/14 08:45:57;;;;;;;;;39.00;33.75;;;;;-146.25;100.00;57879.81;5077215;27;45487;-70
2021/12/14 08:48:29;;;;;;;;;24.00;20.25;;;;;-146.25;100.00;57879.81;5077572;27;45361;-71
2021/12/14 08:51:13;;;;;;;;;46.00;37.25;;;;;-146.25;100.00;57879.81;5077811;27;45674;-71
2021/12/14 08:53:48;;;;;;;;;33.75;31.50;;;;;-146.25;100.00;57879.81;5077945;27;45293;-71
2021/12/14 08:56:16;;;;;;;;;52.50;40.50;;;;;-146.25;100.00;57879.81;5077532;27;45592;-72
2021/12/14 08:58:42;;;;;;;;;12.75;12.00;;;;;-146.25;100.00;57879.81;5077720;27;45388;-75
2021/12/14 09:01:15;;;;;;;;;1.00;0.25;;;;;-146.25;100.00;57879.81;5078122;27;45420;-71
2021/12/14 09:03:48;;;;;;;;;21.75;20.25;;;;;-146.25;100.00;57879.81;5077842;27;45342;-74
2021/12/14 09:06:17;;;;;;;;;4.75;3.00;;;;;-146.25;100.00;57879.81;5077742;27;46184;-74
2021/12/14 09:08:46;;;;;;;;;17.50;17.25;;;;;-146.25;100.00;57879.81;5077644;27;45367;-70
2021/12/14 09:11:14;;;;;;;;;15.00;10.00;;;;;-146.25;100.00;57879.81;5077525;27;45520;-73
2021/12/14 09:13:40;;;;;;;;;14.75;11.50;;;;;-146.25;100.00;57879.81;5077970;28;45269;-72
2021/12/14 09:16:08;;;;;;;;;82.75;60.75;;;;;-146.25;100.00;57879.81;5077561;27;45352;-72
2021/12/14 09:18:39;;;;;;;;;44.25;36.25;;;;;-146.25;100.00;57879.81;5077362;27;45381;-72
2021/12/14 09:21:16;;;;;;;;;41.50;35.00;;;;;-146.25;100.00;57879.81;5077546;27;45552;-73
2021/12/14 09:23:46;;;;;;;;;25.00;22.25;;;;;-146.25;100.00;57879.81;5077679;27;45721;-72
2021/12/14 09:26:20;;;;;;;;;29.00;24.75;;;;;-146.25;100.00;57879.81;5075272;28;47770;-72
2021/12/14 09:28:50;;;;;;;;;25.00;24.25;;;;;-146.25;100.00;57879.81;5077293;28;45508;-72
2021/12/14 09:31:21;;;;;;;;;29.75;27.25;;;;;-146.25;100.00;57879.81;5077246;27;45702;-72
2021/12/14 09:33:49;;;;;;;;;16.75;15.25;;;;;-146.25;100.00;57879.81;5076135;28;45406;-72
2021/12/14 09:36:15;;;;;;;;;15.33;14.67;;;;;-146.25;100.00;57879.81;5076924;27;46104;-72
2021/12/14 09:38:46;;;;;;;;;13.00;12.33;;;;;-146.25;100.00;57879.81;5077272;28;45417;-72
2021/12/14 09:41:15;;;;;;;;;11.67;10.67;;;;;-146.25;100.00;57879.81;5077362;27;45487;-72
2021/12/14 09:43:42;;;;;;;;;11.67;11.33;;;;;-146.25;100.00;57879.81;5077763;28;45443;-73
2021/12/14 09:46:09;;;;;;;;;13.00;11.00;;;;;-146.25;100.00;57879.81;5077359;27;45463;-73
2021/12/14 09:48:39;;;;;;;;;6.00;6.00;;;;;-146.25;100.00;57879.81;5077199;27;45523;-72
2021/12/14 09:51:10;;;;;;;;;6.67;5.33;;;;;-146.25;100.00;57879.81;5076852;27;45441;-73
2021/12/14 09:53:40;;;;;;;;;8.00;7.67;;;;;-146.25;100.00;57879.81;5077277;27;45340;-72
2021/12/14 09:56:08;;;;;;;;;11.33;10.33;;;;;-146.25;100.00;57879.81;5076504;28;45426;-73
2021/12/14 09:58:40;;;;;;;;;26.00;23.33;;;;;-146.25;100.00;57879.81;5076832;27;45603;-71
2021/12/14 10:01:25;;;;;;;;;19.00;17.33;;;;;-146.25;100.00;57879.81;5076820;27;45514;-71
2021/12/14 10:03:54;;;;;;;;;14.67;14.00;;;;;-146.25;100.00;57879.81;5077001;27;45473;-71
2021/12/14 10:06:25;;;;;;;;;36.25;32.50;;;;;-146.25;100.00;57879.81;5076530;27;46227;-71
2021/12/14 10:09:00;;;;;;;;;24.25;23.75;;;;;-146.25;100.00;57879.81;5076479;28;45393;-71
2021/12/14 10:12:02;;;;;;;;;14.00;13.00;;;;;-146.25;100.00;57879.81;5076835;27;45297;-72
2021/12/14 10:14:36;;;;;;;;;8.33;8.00;;;;;-146.25;100.00;57879.81;5077055;27;45268;-72
2021/12/14 10:17:07;;;;;;;;;6.67;6.33;;;;;-146.25;100.00;57879.81;5076565;28;45488;-72
2021/12/14 10:19:34;;;;;;;;;5.00;5.00;;;;;-146.25;100.00;57879.81;5076825;27;45441;-72
2021/12/14 10:22:08;;;;;;;;;24.00;23.67;;;;;-146.25;100.00;57879.81;5076823;27;45592;-73
2021/12/14 10:24:36;;;;;;;;;18.33;16.67;;;;;-146.25;100.00;57879.81;5076808;27;45410;-73
2021/12/14 10:27:07;;;;;;;;;24.33;21.00;;;;;-146.25;100.00;57879.81;5076242;27;46038;-71
2021/12/14 10:29:34;;;;;;;;;27.33;22.67;;;;;-146.25;100.00;57879.81;5076222;27;45527;-71
2021/12/14 10:32:08;;;;;;;;;5.00;4.00;;;;;-146.25;100.00;57879.81;5076354;27;45578;-71
2021/12/14 10:34:40;;;;;;;;;5.00;3.33;;;;;-146.25;100.00;57879.81;5076659;27;45934;-71
2021/12/14 10:37:17;;;;;;;;;28.33;26.33;;;;;-146.25;100.00;57879.81;5076395;27;45518;-71
2021/12/14 10:42:51;;;;;;;;;4.00;2.00;;;;;-146.25;100.00;57879.81;5079987;28;45366;-71
2021/12/14 10:45:18;;;;;;;;;3.33;3.33;;;;;-146.25;100.00;57879.81;5096005;27;45250;-71
2021/12/14 10:47:44;;;;;;;;;3.00;3.00;;;;;-146.25;100.00;57879.81;5080167;27;45333;-71
2021/12/14 10:50:14;;;;;;;;;1.00;1.00;;;;;-146.25;100.00;57879.81;5079893;27;45209;-71
2021/12/14 10:52:43;;;;;;;;;4.00;3.00;;;;;-146.25;100.00;57879.81;5080220;28;45395;-71
2021/12/14 10:55:19;;;;;;;;;5.33;5.33;;;;;-146.25;100.00;57879.81;5079969;27;45488;-71
2021/12/14 10:57:47;;;;;;;;;5.00;4.33;;;;;-146.25;100.00;57879.81;5079916;27;46021;-73
2021/12/14 11:00:29;;;;;;;;;6.33;4.33;;;;;-146.25;100.00;57879.81;5079672;28;45373;-72
2021/12/14 11:03:00;;;;;;;;;3.67;3.67;;;;;-146.25;100.00;57879.81;5079543;28;45495;-71
2021/12/14 11:05:27;;;;;;;;;4.33;3.67;;;;;-146.25;100.00;57879.81;5079948;28;45762;-72
2021/12/14 11:07:53;;;;;;;;;2.67;2.67;;;;;-146.25;100.00;57879.81;5079550;27;46150;-72
2021/12/14 11:10:22;;;;;;;;;3.67;3.00;;;;;-146.25;100.00;57879.81;5079309;27;45474;-72
2021/12/14 11:12:52;;;;;;;;;3.00;3.00;;;;;-146.25;100.00;57879.81;5079833;27;45311;-72
2021/12/14 11:15:24;;;;;;;;;2.00;2.00;;;;;-146.25;100.00;57879.81;5079595;27;45411;-71
2021/12/14 11:20:44;;;;;;;;;55.00;41.75;;;;;-146.25;100.00;57879.81;5079213;28;45212;-73
2021/12/14 11:23:18;;;;;;;;;52.75;39.50;;;;;-146.25;100.00;57879.81;5079208;27;45488;-72
2021/12/14 11:25:49;;;;;;;;;71.50;51.25;;;;;-146.25;100.00;57879.81;5078016;28;45466;-73
2021/12/14 11:28:50;;;;;;;;;12.67;9.00;;;;;-146.25;100.00;57879.81;5079251;28;45330;-71
2021/12/14 11:31:30;;;;;;;;;28.00;23.00;;;;;-146.25;100.00;57879.81;5064587;28;45491;-71
2021/12/14 11:34:05;;;;;;;;;9.33;8.33;;;;;-146.25;100.00;57879.81;5079036;27;45393;-71
2021/12/14 11:36:40;;;;;;;;;14.67;13.67;;;;;-146.25;100.00;57879.81;5079794;27;45532;-72
2021/12/14 11:39:24;;;;;;;;;7.67;7.00;;;;;-146.25;100.00;57879.81;5080989;27;45623;-71
2021/12/14 11:41:55;;;;;;;;;4.00;4.00;;;;;-146.25;100.00;57879.81;5078977;27;45444;-71
2021/12/14 11:44:28;;;;;;;;;6.33;6.33;;;;;-146.25;100.00;57879.81;5079253;27;45669;-71
2021/12/14 11:50:01;;;;;;;;;4.33;3.67;;;;;-146.25;100.00;57879.81;5078242;27;46017;-72
2021/12/14 11:53:03;;;;;;;;;3.00;3.00;;;;;-146.25;100.00;57879.81;5078418;27;45720;-74
2021/12/14 11:55:43;;;;;;;;;3.00;3.00;;;;;-146.25;100.00;57879.81;5078851;27;45456;-72
2021/12/14 11:58:30;;;;;;;;;3.00;3.00;;;;;-146.25;100.00;57879.81;5078964;27;45282;-73
2021/12/14 12:01:05;;;;;;;;;3.00;3.00;;;;;-146.25;100.00;57879.81;5078667;27;45446;-71
2021/12/14 12:03:46;;;;;;;;;5.00;5.00;;;;;-146.25;100.00;57879.81;5078602;27;45507;-70